Search for airport 
image banner adimage banner adimage banner ad
image banner ad

CA82 - Scripps Memorial Hospital

Located in Encinitas, United States

ICAO - CA82, IATA -

Data provided by Airmate  

General information

Coordinates: N33°2'13" W117°17'6"
Elevation is 224 feet MSL.
 
View others Airports in California

Operational data

Special qualification required
Current time UTC:
Current local time:
Weather at : KCRQ - Mc Clellan-Palomar ( 10 km )
METAR: KCRQ 211253Z AUTO 00000KT 9SM OVC008 16/14 A2994 RMK AO2 SLP137 T01610139
TAF: KCRQ 211140Z 2112/2212 VRB03KT P6SM OVC008 FM211600 25006KT P6SM BKN010 FM212000 27008KT P6SM SCT012 FM220100 VRB04KT P6SM BKN008
View NOTAMs / SUP AIP / TFR affecting this airport [VIEW]
Communications frequencies: [VIEW]

Runways:

Airport contact information

Address: Encinitas United States

Satellite view of CA82